Time;durP1;ratioP1;P1;durP2;ratioP2;P2;SDS_P1;SDS_P2;PMS_P1;PMS_P2;Temp;Humidity;BMP_temperature;BMP_pressure;BME280_temperature;BME280_humidity;BME280_pressure;Samples;Min_cycle;Max_cycle;Signal;HPM_P1;HPM_P2
2023/09/17 00:01:00;;;;;;;6.35;4.10;;;;;;;17.64;63.34;95302.16;5051252;28;20494;-78
2023/09/17 00:03:25;;;;;;;5.60;4.60;;;;;;;17.67;63.79;95301.00;5034990;28;20447;-77
2023/09/17 00:05:51;;;;;;;4.85;4.20;;;;;;;17.81;63.39;95303.06;5051555;28;20044;-78
2023/09/17 00:08:18;;;;;;;5.63;4.45;;;;;;;17.86;64.04;95306.84;5053147;28;20029;-78
2023/09/17 00:10:45;;;;;;;7.13;4.22;;;;;;;17.67;65.33;95301.84;5051544;28;20037;-77
2023/09/17 00:13:10;;;;;;;11.00;4.95;;;;;;;17.79;69.05;95305.00;5035074;28;20411;-78
2023/09/17 00:15:36;;;;;;;8.63;4.68;;;;;;;17.74;69.05;95300.19;5051528;28;20055;-78
2023/09/17 00:18:02;;;;;;;5.40;4.90;;;;;;;17.83;64.16;95293.22;5034788;28;20470;-79
2023/09/17 00:20:27;;;;;;;7.47;5.60;;;;;;;17.68;66.57;95279.00;5051114;28;20036;-77
2023/09/17 00:22:53;;;;;;;7.60;6.30;;;;;;;17.68;66.60;95294.75;5051262;28;20025;-77
2023/09/17 00:25:18;;;;;;;7.32;5.82;;;;;;;17.65;68.73;95293.28;5051494;28;20037;-77
2023/09/17 00:27:43;;;;;;;10.93;5.63;;;;;;;17.68;69.62;95297.41;5052208;28;20483;-78
2023/09/17 00:30:09;;;;;;;8.60;6.07;;;;;;;17.90;69.88;95280.25;5067656;28;20068;-78
2023/09/17 00:32:35;;;;;;;7.97;6.38;;;;;;;17.60;69.77;95256.97;5051069;28;20061;-77
2023/09/17 00:35:00;;;;;;;7.78;6.97;;;;;;;17.74;67.97;95279.19;5067775;28;20439;-78
2023/09/17 00:37:26;;;;;;;8.60;6.78;;;;;;;17.74;69.15;95281.00;5050772;28;20029;-77
2023/09/17 00:39:51;;;;;;;7.97;7.03;;;;;;;17.73;68.61;95274.91;5051274;28;20043;-77
2023/09/17 00:42:16;;;;;;;8.52;7.38;;;;;;;17.64;68.82;95275.88;5052227;28;20530;-78
2023/09/17 00:44:42;;;;;;;12.50;7.50;;;;;;;17.73;69.28;95261.78;5051040;28;20095;-78
2023/09/17 00:47:07;;;;;;;9.18;6.88;;;;;;;17.63;70.08;95268.97;5034032;28;20487;-78
2023/09/17 00:49:33;;;;;;;8.82;7.22;;;;;;;17.58;69.77;95268.66;5034240;28;20114;-77
2023/09/17 00:51:58;;;;;;;12.13;9.18;;;;;;;17.61;68.13;95270.94;5050986;28;20048;-78
2023/09/17 00:54:25;;;;;;;12.85;7.72;;;;;;;17.61;71.54;95270.94;5050789;28;20422;-78
2023/09/17 00:56:51;;;;;;;9.68;8.13;;;;;;;17.38;72.45;95284.66;5067085;28;20047;-77
2023/09/17 00:59:16;;;;;;;11.20;9.05;;;;;;;17.30;72.37;95265.38;5050907;28;20543;-78
2023/09/17 01:01:43;;;;;;;13.30;9.82;;;;;;;17.24;70.09;95277.34;5034041;28;20117;-77
2023/09/17 01:04:08;;;;;;;11.73;10.40;;;;;;;17.28;70.94;95273.44;5034010;28;20035;-78
2023/09/17 01:06:35;;;;;;;11.82;10.65;;;;;;;17.40;69.55;95279.22;5066954;28;20033;-78
2023/09/17 01:09:01;;;;;;;12.20;10.90;;;;;;;17.36;70.48;95275.28;5033971;28;20033;-78
2023/09/17 01:11:27;;;;;;;16.33;11.00;;;;;;;17.27;71.37;95260.44;5067153;28;20029;-77
2023/09/17 01:13:58;;;;;;;11.57;10.35;;;;;;;17.33;70.31;95254.59;5033429;28;20037;-78
2023/09/17 01:16:25;;;;;;;13.55;11.00;;;;;;;17.51;69.09;95273.69;5050097;28;20033;-78
2023/09/17 01:18:53;;;;;;;13.65;12.20;;;;;;;17.52;69.30;95262.19;5066985;28;20033;-78
2023/09/17 01:21:36;;;;;;;13.60;11.38;;;;;;;17.64;69.54;95268.00;5066760;28;20028;-78
2023/09/17 01:24:19;;;;;;;15.90;11.80;;;;;;;17.53;70.23;95263.03;5033946;28;20068;-78
2023/09/17 01:27:01;;;;;;;14.30;12.15;;;;;;;17.65;69.66;95256.50;5050278;28;20040;-78
2023/09/17 01:29:32;;;;;;;14.23;11.73;;;;;;;17.60;69.29;95256.97;5033815;28;20037;-78
2023/09/17 01:31:57;;;;;;;17.08;12.63;;;;;;;17.51;70.95;95250.06;5051536;28;20036;-77
2023/09/17 01:34:22;;;;;;;14.07;11.20;;;;;;;17.64;68.33;95247.81;5050088;28;20037;-78
2023/09/17 01:36:48;;;;;;;13.48;10.88;;;;;;;17.66;67.94;95252.88;5050175;28;20533;-78
2023/09/17 01:39:18;;;;;;;13.63;11.68;;;;;;;17.72;67.68;95252.25;5050295;28;20603;-77
2023/09/17 01:41:43;;;;;;;15.80;11.38;;;;;;;17.56;68.21;95257.47;5034025;28;20033;-78
2023/09/17 01:44:08;;;;;;;12.27;10.30;;;;;;;17.59;67.45;95262.41;5049836;28;20025;-78
2023/09/17 01:46:35;;;;;;;14.88;12.00;;;;;;;17.69;67.67;95257.84;5050102;28;20487;-78
2023/09/17 01:49:00;;;;;;;17.42;11.65;;;;;;;17.78;69.83;95256.91;5033330;28;20476;-78
2023/09/17 01:51:26;;;;;;;14.63;12.38;;;;;;;17.79;69.74;95255.09;5050035;28;20071;-78
2023/09/17 01:53:51;;;;;;;13.73;11.75;;;;;;;17.65;68.70;95261.75;5049928;28;20033;-78
2023/09/17 01:56:17;;;;;;;14.18;11.13;;;;;;;17.59;67.60;95233.50;5049853;28;20024;-78
2023/09/17 01:58:43;;;;;;;13.25;10.60;;;;;;;17.62;67.49;95268.16;5050187;28;20510;-79
2023/09/17 02:01:08;;;;;;;12.52;11.23;;;;;;;17.66;67.71;95250.25;5066870;28;20061;-78
2023/09/17 02:03:34;;;;;;;13.60;10.77;;;;;;;17.54;67.51;95254.97;5032911;28;20044;-77
2023/09/17 02:05:59;;;;;;;14.77;12.13;;;;;;;17.57;68.14;95265.16;5033183;28;20086;-78
2023/09/17 02:08:25;;;;;;;13.07;10.35;;;;;;;17.75;66.96;95267.72;5049920;28;20037;-78
2023/09/17 02:10:51;;;;;;;12.63;11.32;;;;;;;17.50;67.75;95263.34;5050961;28;20021;-78
2023/09/17 02:13:16;;;;;;;14.57;10.73;;;;;;;17.64;67.48;95268.81;5049637;28;20068;-78
2023/09/17 02:15:44;;;;;;;14.65;10.88;;;;;;;17.55;67.70;95264.53;5033237;28;20483;-78
2023/09/17 02:18:10;;;;;;;14.40;10.02;;;;;;;17.36;67.97;95273.47;5049787;28;20052;-78
2023/09/17 02:20:39;;;;;;;13.27;11.88;;;;;;;17.40;67.99;95269.53;5066336;28;20021;-77
2023/09/17 02:23:05;;;;;;;14.95;10.98;;;;;;;17.42;67.20;95282.53;5032680;28;20033;-78
2023/09/17 02:25:30;;;;;;;15.07;11.90;;;;;;;17.45;68.82;95276.13;5034758;28;20104;-78
2023/09/17 02:27:56;;;;;;;14.00;11.30;;;;;;;17.50;67.94;95279.94;5053594;28;20041;-78
2023/09/17 02:30:22;;;;;;;15.85;12.02;;;;;;;17.31;67.51;95270.50;5053545;28;20111;-78
2023/09/17 02:32:47;;;;;;;14.57;12.13;;;;;;;17.35;67.61;95279.69;5036609;28;20423;-78
2023/09/17 02:35:13;;;;;;;15.65;11.55;;;;;;;17.42;67.36;95283.34;5036835;28;20025;-78
2023/09/17 02:37:38;;;;;;;13.43;10.90;;;;;;;17.39;67.08;95281.03;5070106;28;20082;-78
2023/09/17 02:40:08;;;;;;;12.63;10.65;;;;;;;17.40;66.99;95279.22;5053301;28;20488;-78
2023/09/17 02:42:35;;;;;;;15.50;13.50;;;;;;;17.40;67.55;95277.41;5054220;28;20029;-78
2023/09/17 02:45:04;;;;;;;13.82;10.85;;;;;;;17.35;66.86;95255.25;5036503;28;20032;-78
2023/09/17 02:47:31;;;;;;;14.93;11.82;;;;;;;17.25;68.16;95281.63;5054437;28;20074;-77
2023/09/17 02:49:57;;;;;;;14.23;12.73;;;;;;;17.25;68.59;95279.00;5054365;28;20049;-78
2023/09/17 02:52:22;;;;;;;16.38;13.20;;;;;;;17.38;67.87;95276.78;5054133;28;20029;-78
2023/09/17 02:54:47;;;;;;;14.68;11.65;;;;;;;17.44;67.27;95272.69;5036585;28;20045;-77
2023/09/17 02:57:13;;;;;;;19.73;11.80;;;;;;;17.42;67.59;95272.03;5052986;28;20040;-78
2023/09/17 02:59:39;;;;;;;14.02;12.40;;;;;;;17.35;68.32;95266.56;5036309;28;20037;-78
2023/09/17 03:02:04;;;;;;;16.20;13.23;;;;;;;17.36;70.95;95267.41;5054011;28;20059;-77
2023/09/17 03:04:29;;;;;;;20.45;12.93;;;;;;;17.20;71.04;95252.41;5052663;28;20499;-78
2023/09/17 03:06:55;;;;;;;16.70;12.30;;;;;;;16.94;71.80;95228.81;5052868;28;20029;-76
2023/09/17 03:09:20;;;;;;;23.85;13.60;;;;;;;17.13;72.63;95261.88;5036389;28;20028;-78
2023/09/17 03:11:46;;;;;;;14.55;12.73;;;;;;;17.24;72.50;95258.97;5052596;28;20025;-78
2023/09/17 03:14:11;;;;;;;19.33;13.73;;;;;;;17.17;72.67;95250.09;5052741;28;20048;-78
2023/09/17 03:16:37;;;;;;;14.25;12.52;;;;;;;17.09;72.22;95244.78;5052817;28;20033;-78
2023/09/17 03:19:02;;;;;;;14.27;12.05;;;;;;;16.91;72.09;95243.06;5052677;28;20032;-78
2023/09/17 03:21:28;;;;;;;15.77;13.00;;;;;;;16.88;72.53;95250.41;5035499;28;20032;-78
2023/09/17 03:23:53;;;;;;;15.45;12.70;;;;;;;16.96;72.03;95253.06;5052290;28;20033;-78
2023/09/17 03:26:18;;;;;;;17.48;13.90;;;;;;;16.97;73.18;95255.56;5052538;28;20475;-78
2023/09/17 03:28:44;;;;;;;16.17;12.20;;;;;;;16.83;69.87;95245.66;5035797;28;20392;-78
2023/09/17 03:31:09;;;;;;;13.95;12.02;;;;;;;16.95;71.03;95259.31;5035408;28;20128;-78
2023/09/17 03:33:35;;;;;;;16.98;13.00;;;;;;;16.67;73.35;95256.00;5052432;28;20036;-78
2023/09/17 03:36:00;;;;;;;13.65;11.52;;;;;;;16.81;70.35;95260.72;5051907;28;20025;-78
2023/09/17 03:38:26;;;;;;;15.95;13.13;;;;;;;16.70;71.03;95245.19;5052140;28;20033;-78
2023/09/17 03:40:51;;;;;;;16.25;12.18;;;;;;;16.68;70.72;95257.63;5051960;28;20036;-78
2023/09/17 03:43:17;;;;;;;16.45;12.13;;;;;;;16.86;71.14;95261.06;5052088;28;20037;-78
2023/09/17 03:45:42;;;;;;;14.93;13.05;;;;;;;16.81;71.84;95252.84;5052043;28;20040;-78
2023/09/17 03:48:08;;;;;;;17.17;13.48;;;;;;;16.85;72.62;95262.03;5035236;28;20045;-79
2023/09/17 03:50:38;;;;;;;16.50;13.80;;;;;;;16.89;72.35;95259.94;5068831;28;20045;-78
2023/09/17 03:53:05;;;;;;;15.80;13.32;;;;;;;16.81;73.28;95262.50;5069054;28;20037;-79
2023/09/17 03:55:31;;;;;;;17.55;13.73;;;;;;;16.89;72.87;95268.63;5052082;28;20033;-78
2023/09/17 03:57:57;;;;;;;17.38;14.02;;;;;;;16.88;73.84;95253.88;5051906;28;20181;-78
2023/09/17 04:00:23;;;;;;;16.30;13.82;;;;;;;16.87;73.15;95264.50;5051992;28;20059;-79
2023/09/17 04:02:49;;;;;;;16.67;13.70;;;;;;;16.89;73.06;95259.94;5052116;28;20033;-78
2023/09/17 04:05:16;;;;;;;24.02;15.27;;;;;;;16.84;72.53;95257.78;5035307;28;20025;-78
2023/09/17 04:07:42;;;;;;;17.17;13.73;;;;;;;16.80;73.35;95277.44;5035197;28;20518;-78
2023/09/17 04:10:08;;;;;;;18.98;14.82;;;;;;;16.95;74.11;95270.63;5067939;28;20483;-78
2023/09/17 04:12:34;;;;;;;17.20;14.90;;;;;;;16.75;72.93;95270.00;5051583;28;20024;-78
2023/09/17 04:15:00;;;;;;;19.67;14.82;;;;;;;16.83;73.12;95277.13;5051546;28;20033;-78
2023/09/17 04:17:25;;;;;;;20.13;15.50;;;;;;;16.92;72.88;95280.63;5052640;28;20522;-77
2023/09/17 04:19:52;;;;;;;20.48;15.85;;;;;;;17.00;73.00;95277.22;5052274;28;20517;-78
2023/09/17 04:22:18;;;;;;;22.63;17.02;;;;;;;16.89;73.62;95279.13;5051438;28;20044;-77
2023/09/17 04:24:44;;;;;;;20.98;15.60;;;;;;;16.97;72.95;95273.94;5051501;28;20041;-78
2023/09/17 04:27:09;;;;;;;22.75;16.80;;;;;;;17.06;73.52;95277.41;5051492;28;20036;-79
2023/09/17 04:29:36;;;;;;;21.80;16.38;;;;;;;16.96;73.75;95280.13;5052542;28;20033;-78
2023/09/17 04:32:01;;;;;;;23.83;16.58;;;;;;;16.81;73.69;95252.84;5051287;28;20061;-78
2023/09/17 04:34:27;;;;;;;22.35;16.60;;;;;;;17.00;73.88;95277.22;5067970;28;20037;-78
2023/09/17 04:36:52;;;;;;;23.85;17.02;;;;;;;17.19;73.59;95288.31;5067791;28;20033;-78
2023/09/17 04:39:18;;;;;;;24.10;16.83;;;;;;;17.04;73.55;95265.44;5050928;28;20025;-78
2023/09/17 04:41:44;;;;;;;22.27;17.20;;;;;;;17.18;73.50;95291.09;5068111;28;20025;-78
2023/09/17 04:44:10;;;;;;;23.38;15.38;;;;;;;17.20;73.43;95291.78;5051278;28;20491;-78
2023/09/17 04:46:40;;;;;;;16.23;12.55;;;;;;;16.95;71.48;95286.38;5067866;28;20029;-77
2023/09/17 04:49:06;;;;;;;14.88;12.05;;;;;;;17.16;70.76;95290.41;5066588;28;20426;-78
2023/09/17 04:51:32;;;;;;;15.30;12.75;;;;;;;17.18;71.42;95291.09;5052092;28;20068;-77
2023/09/17 04:53:58;;;;;;;22.00;13.20;;;;;;;17.19;71.36;95290.13;5051055;28;20095;-78
2023/09/17 04:56:23;;;;;;;19.92;14.60;;;;;;;17.17;74.78;95290.28;5052249;28;20025;-79
2023/09/17 04:58:49;;;;;;;15.98;13.45;;;;;;;17.19;73.83;95292.75;5052311;28;20404;-78
2023/09/17 05:01:14;;;;;;;22.60;16.55;;;;;;;17.24;73.09;95295.72;5034367;28;20056;-79
2023/09/17 05:03:41;;;;;;;21.52;16.08;;;;;;;17.34;73.28;95293.81;5034212;28;20037;-78
2023/09/17 05:06:07;;;;;;;22.00;16.92;;;;;;;17.41;73.75;95289.59;5050564;28;20391;-78
2023/09/17 05:08:32;;;;;;;23.20;15.57;;;;;;;17.39;73.44;95294.16;5033832;28;20104;-77
2023/09/17 05:10:58;;;;;;;27.88;16.08;;;;;;;17.40;73.42;95300.22;5050615;28;20033;-78
2023/09/17 05:13:23;;;;;;;23.00;17.15;;;;;;;17.46;73.47;95296.97;5052466;28;20037;-78
2023/09/17 05:15:49;;;;;;;22.52;15.63;;;;;;;17.65;72.24;95277.50;5050736;28;20024;-78
2023/09/17 05:18:14;;;;;;;22.92;16.80;;;;;;;17.64;72.64;95289.84;5033536;28;20415;-78
2023/09/17 05:20:43;;;;;;;20.33;15.98;;;;;;;17.59;72.38;95289.47;5034025;28;20043;-78
2023/09/17 05:23:11;;;;;;;21.90;16.08;;;;;;;17.73;72.54;95288.06;5050403;28;20095;-77
2023/09/17 05:25:36;;;;;;;24.27;17.15;;;;;;;17.46;73.22;95267.28;5051576;28;20115;-78
2023/09/17 05:28:06;;;;;;;25.15;17.25;;;;;;;17.70;72.93;95285.75;5049897;28;20045;-77
2023/09/17 05:30:33;;;;;;;28.10;17.80;;;;;;;17.73;72.83;95290.69;5050295;28;20072;-78
2023/09/17 05:32:58;;;;;;;24.58;17.42;;;;;;;17.71;72.93;95290.00;5050340;28;20033;-78
2023/09/17 05:35:23;;;;;;;25.63;17.98;;;;;;;17.95;72.44;95284.03;5051406;28;20099;-79
2023/09/17 05:37:49;;;;;;;27.60;18.90;;;;;;;18.02;72.20;95289.47;5051156;28;20115;-77
2023/09/17 05:40:14;;;;;;;25.15;18.08;;;;;;;17.89;72.14;95273.38;5051301;28;20029;-78
2023/09/17 05:42:40;;;;;;;25.33;17.63;;;;;;;18.26;70.96;95284.25;5066800;28;20021;-78
2023/09/17 05:45:06;;;;;;;26.02;17.65;;;;;;;18.11;70.69;95261.38;5049997;28;20060;-77
2023/09/17 05:47:31;;;;;;;21.65;16.40;;;;;;;18.23;71.41;95279.31;5033106;28;20112;-78
2023/09/17 05:49:59;;;;;;;22.98;16.60;;;;;;;18.33;70.95;95280.97;5033159;28;20049;-77
2023/09/17 05:52:24;;;;;;;25.73;17.88;;;;;;;18.08;71.50;95288.84;5050065;28;20028;-77
2023/09/17 05:54:49;;;;;;;23.50;16.98;;;;;;;18.14;71.73;95293.44;5033528;28;20028;-78
2023/09/17 05:57:16;;;;;;;22.98;16.25;;;;;;;18.20;72.34;95290.16;5066503;28;20033;-78
2023/09/17 05:59:41;;;;;;;27.08;17.67;;;;;;;18.19;72.01;95285.06;5035786;28;20099;-78
2023/09/17 06:02:08;;;;;;;21.90;16.00;;;;;;;18.18;72.36;95286.88;5054150;28;20028;-76
2023/09/17 06:04:34;;;;;;;22.17;16.30;;;;;;;18.07;72.30;95287.19;5054324;28;20100;-78
2023/09/17 06:06:59;;;;;;;22.40;16.40;;;;;;;18.02;72.88;95274.50;5037164;28;20036;-78
2023/09/17 06:09:25;;;;;;;20.10;15.90;;;;;;;18.09;72.68;95264.19;5053689;28;20064;-78
2023/09/17 06:11:51;;;;;;;25.50;16.33;;;;;;;18.26;73.09;95276.38;5053303;28;20029;-75
2023/09/17 06:14:16;;;;;;;24.00;16.65;;;;;;;18.51;71.97;95284.28;5053292;28;20033;-75
2023/09/17 06:16:42;;;;;;;22.95;14.77;;;;;;;18.36;70.57;95283.25;5036566;28;20045;-74
2023/09/17 06:19:07;;;;;;;20.55;15.52;;;;;;;18.57;70.86;95291.50;5053059;28;20033;-75
2023/09/17 06:21:33;;;;;;;23.65;16.33;;;;;;;18.46;71.50;95297.91;5070377;28;20040;-78
2023/09/17 06:23:58;;;;;;;24.55;16.55;;;;;;;18.48;71.84;95303.84;5036732;28;20033;-78
2023/09/17 06:26:24;;;;;;;23.70;16.35;;;;;;;18.44;72.04;95292.00;5070360;28;20576;-79
2023/09/17 06:28:50;;;;;;;24.27;15.18;;;;;;;18.51;71.59;95310.56;5037314;28;20032;-79
2023/09/17 06:31:15;;;;;;;22.63;15.52;;;;;;;18.39;70.97;95314.53;5053872;28;20044;-79
2023/09/17 06:33:41;;;;;;;22.67;15.38;;;;;;;18.34;71.63;95295.78;5037016;28;20033;-78
2023/09/17 06:36:06;;;;;;;21.08;14.77;;;;;;;18.32;71.18;95311.69;5053613;28;20029;-78
2023/09/17 06:38:32;;;;;;;20.98;13.70;;;;;;;18.18;71.82;95315.78;5070296;28;20032;-79
2023/09/17 06:40:57;;;;;;;22.27;13.18;;;;;;;18.14;71.69;95316.28;5054691;28;20029;-80
2023/09/17 06:43:23;;;;;;;21.65;13.85;;;;;;;18.16;71.77;95317.75;5053142;28;20036;-79
2023/09/17 06:45:48;;;;;;;19.67;14.38;;;;;;;18.36;71.57;95317.44;5036797;28;20037;-78
2023/09/17 06:48:14;;;;;;;24.05;15.20;;;;;;;18.35;71.15;95313.19;5037101;28;20032;-79
2023/09/17 06:50:40;;;;;;;22.05;14.88;;;;;;;18.35;71.62;95313.19;5036767;28;20052;-78
2023/09/17 06:53:05;;;;;;;18.92;13.95;;;;;;;18.62;71.06;95319.97;5036504;28;20029;-78
2023/09/17 06:55:30;;;;;;;19.65;14.55;;;;;;;18.52;71.74;95309.56;5053157;28;20029;-78
2023/09/17 06:57:56;;;;;;;19.75;14.63;;;;;;;18.71;70.91;95317.16;5053299;28;20045;-78
2023/09/17 07:00:21;;;;;;;20.83;13.65;;;;;;;18.65;71.54;95315.19;5036420;28;20123;-78
2023/09/17 07:02:47;;;;;;;18.40;13.95;;;;;;;18.70;71.47;95314.69;5053044;28;20025;-78
2023/09/17 07:05:13;;;;;;;18.60;14.15;;;;;;;18.74;70.79;95316.84;5052728;28;20509;-78
2023/09/17 07:07:39;;;;;;;20.23;14.50;;;;;;;18.95;70.89;95308.44;5053012;28;20396;-78
2023/09/17 07:10:05;;;;;;;20.45;13.68;;;;;;;19.37;68.01;95312.66;5053085;28;20063;-79
2023/09/17 07:12:37;;;;;;;18.50;13.02;;;;;;;19.43;68.04;95309.31;5051995;28;20037;-78
2023/09/17 07:15:06;;;;;;;20.90;13.70;;;;;;;19.53;68.37;95309.16;5053007;28;20114;-79
2023/09/17 07:17:33;;;;;;;17.75;13.57;;;;;;;19.57;68.49;95306.97;5053051;28;20029;-78
2023/09/17 07:19:58;;;;;;;20.17;13.82;;;;;;;19.59;68.16;95300.56;5068795;28;20537;-79
2023/09/17 07:22:24;;;;;;;20.05;13.50;;;;;;;19.40;67.86;95304.41;5036212;28;20033;-78
2023/09/17 07:24:55;;;;;;;20.83;14.98;;;;;;;19.52;68.25;95307.47;5052108;28;20063;-79
2023/09/17 07:27:21;;;;;;;21.00;15.07;;;;;;;19.76;68.20;95324.25;5052366;28;20021;-79
2023/09/17 07:29:48;;;;;;;20.17;14.82;;;;;;;19.79;67.88;95310.72;5052217;28;20043;-79
2023/09/17 07:32:13;;;;;;;21.13;14.60;;;;;;;19.84;66.83;95324.22;5052400;28;20108;-78
2023/09/17 07:34:39;;;;;;;21.27;15.18;;;;;;;19.79;66.08;95326.53;5052182;28;20124;-80
2023/09/17 07:37:05;;;;;;;19.65;14.40;;;;;;;19.74;65.84;95313.03;5052247;28;20495;-78
2023/09/17 07:39:30;;;;;;;17.55;12.82;;;;;;;19.68;65.98;95314.53;5052148;28;20040;-79
2023/09/17 07:41:56;;;;;;;20.40;13.82;;;;;;;19.73;65.99;95328.03;5052186;28;20040;-79
2023/09/17 07:44:22;;;;;;;20.27;14.63;;;;;;;19.89;66.11;95336.84;5052358;28;20040;-80
2023/09/17 07:46:47;;;;;;;17.17;13.40;;;;;;;19.84;66.53;95334.75;5035656;28;20071;-80
2023/09/17 07:49:13;;;;;;;20.40;15.13;;;;;;;20.13;64.73;95336.75;5035342;28;20059;-80
2023/09/17 07:51:38;;;;;;;18.15;13.27;;;;;;;20.09;63.89;95307.25;5052030;28;20029;-80
2023/09/17 07:54:04;;;;;;;19.50;13.98;;;;;;;20.22;64.27;95345.41;5052282;28;20037;-80
2023/09/17 07:56:30;;;;;;;19.80;13.55;;;;;;;20.27;64.14;95328.06;5035420;28;20029;-80
2023/09/17 07:58:55;;;;;;;18.70;13.90;;;;;;;20.23;63.66;95312.78;5052194;28;20542;-80
2023/09/17 08:01:21;;;;;;;18.67;12.82;;;;;;;20.15;63.58;95326.03;5051784;28;20053;-81
2023/09/17 08:03:46;;;;;;;14.80;11.85;;;;;;;20.39;64.04;95333.75;5053337;28;20036;-81
2023/09/17 08:06:12;;;;;;;15.25;11.50;;;;;;;20.58;63.09;95329.06;5051649;28;20033;-80
2023/09/17 08:08:37;;;;;;;14.77;10.77;;;;;;;20.45;61.71;95316.44;5035306;28;20051;-80
2023/09/17 08:11:03;;;;;;;13.00;10.32;;;;;;;20.61;60.95;95318.97;5034627;28;20128;-81
2023/09/17 08:13:29;;;;;;;15.30;11.48;;;;;;;20.58;61.61;95329.06;5051782;28;20047;-79
2023/09/17 08:15:55;;;;;;;14.80;12.27;;;;;;;20.53;62.79;95322.50;5052522;28;20028;-81
2023/09/17 08:18:20;;;;;;;16.20;12.55;;;;;;;20.58;62.73;95311.41;5051735;28;20029;-81
2023/09/17 08:20:46;;;;;;;14.82;10.88;;;;;;;21.05;61.87;95325.38;5034479;28;20553;-80
2023/09/17 08:23:11;;;;;;;15.23;11.20;;;;;;;21.24;60.93;95327.50;5050305;28;20036;-81
2023/09/17 08:25:37;;;;;;;14.82;11.88;;;;;;;21.24;60.06;95329.34;5068287;28;20029;-81
2023/09/17 08:28:03;;;;;;;14.77;11.07;;;;;;;21.30;59.08;95340.00;5034769;28;20040;-81
2023/09/17 08:30:28;;;;;;;13.20;11.27;;;;;;;20.97;59.39;95324.44;5034688;28;20447;-81
2023/09/17 08:32:54;;;;;;;14.07;11.27;;;;;;;20.95;60.01;95328.28;5051624;28;20435;-80
2023/09/17 08:35:19;;;;;;;15.35;12.15;;;;;;;20.97;60.21;95319.16;5051314;28;20081;-80
2023/09/17 08:37:45;;;;;;;15.05;12.15;;;;;;;21.11;59.25;95311.44;5067658;28;20029;-81
2023/09/17 08:40:17;;;;;;;14.88;12.48;;;;;;;21.18;58.96;95315.03;5052161;28;20032;-81
2023/09/17 08:42:43;;;;;;;17.90;11.48;;;;;;;21.37;59.49;95321.63;5067744;28;20050;-81
2023/09/17 08:45:09;;;;;;;17.73;13.05;;;;;;;21.52;60.36;95321.63;5034501;28;20063;-81
2023/09/17 08:47:37;;;;;;;16.90;13.98;;;;;;;21.60;59.43;95301.22;5051160;28;20028;-80
2023/09/17 08:50:02;;;;;;;18.30;13.40;;;;;;;21.76;59.85;95310.78;5050510;28;20075;-81
2023/09/17 08:52:28;;;;;;;15.43;11.88;;;;;;;22.03;56.88;95317.19;5051104;28;20514;-80
2023/09/17 08:54:54;;;;;;;15.00;11.82;;;;;;;21.86;57.09;95308.66;5050944;28;20029;-81
2023/09/17 08:57:22;;;;;;;13.35;11.23;;;;;;;21.89;57.02;95315.41;5050954;28;20036;-81
2023/09/17 08:59:52;;;;;;;14.57;11.93;;;;;;;22.03;57.27;95316.38;5034053;28;20128;-80
2023/09/17 09:02:22;;;;;;;13.57;11.83;;;;;;;21.92;56.46;95306.28;5033653;28;20099;-81
2023/09/17 09:04:50;;;;;;;13.60;11.20;;;;;;;21.83;56.75;95313.50;5066710;28;20037;-80
2023/09/17 09:07:17;;;;;;;14.40;11.20;;;;;;;21.69;57.23;95279.97;5050331;28;20693;-80
2023/09/17 09:09:43;;;;;;;14.68;11.77;;;;;;;21.83;57.09;95309.03;5050415;28;20410;-80
2023/09/17 09:12:08;;;;;;;13.20;11.27;;;;;;;21.89;57.11;95309.28;5033350;28;20017;-79
2023/09/17 09:14:34;;;;;;;16.02;12.45;;;;;;;21.80;58.19;95306.75;5050198;28;20048;-80
2023/09/17 09:17:00;;;;;;;15.02;12.48;;;;;;;21.55;58.13;95268.41;5050115;28;20034;-80
2023/09/17 09:19:26;;;;;;;16.58;13.15;;;;;;;21.76;58.59;95287.00;5050230;28;20419;-79
2023/09/17 09:21:51;;;;;;;13.82;11.88;;;;;;;22.02;55.52;95299.69;5050112;28;20028;-80
2023/09/17 09:24:17;;;;;;;13.38;11.65;;;;;;;21.94;55.64;95294.50;5049924;28;20041;-80
2023/09/17 09:26:44;;;;;;;14.77;12.07;;;;;;;21.69;56.93;95275.50;5051167;28;20601;-79
2023/09/17 09:29:09;;;;;;;15.30;12.13;;;;;;;21.95;56.25;95290.84;5049847;28;20048;-80
2023/09/17 09:31:35;;;;;;;14.27;12.02;;;;;;;21.76;56.86;95289.63;5049770;28;20462;-79
2023/09/17 09:34:01;;;;;;;14.27;12.40;;;;;;;21.94;57.24;95299.00;5049549;28;20420;-80
2023/09/17 09:36:27;;;;;;;14.68;12.63;;;;;;;21.77;56.67;95295.72;5033056;28;20027;-79
2023/09/17 09:38:54;;;;;;;17.25;13.90;;;;;;;21.89;58.39;95294.25;5050248;28;20501;-80
2023/09/17 09:41:21;;;;;;;20.35;13.93;;;;;;;21.84;56.00;95273.66;5033123;28;20068;-79
2023/09/17 09:43:46;;;;;;;14.70;12.38;;;;;;;21.98;57.88;95293.16;5033401;28;20037;-77
2023/09/17 09:46:12;;;;;;;15.73;12.30;;;;;;;21.87;56.74;95296.28;5049738;28;20414;-81
2023/09/17 09:48:38;;;;;;;17.65;12.98;;;;;;;21.52;57.67;95298.66;5049661;28;20471;-79
2023/09/17 09:51:04;;;;;;;15.27;12.40;;;;;;;21.63;57.09;95302.66;5032994;28;20068;-79
2023/09/17 09:53:29;;;;;;;16.77;13.45;;;;;;;21.59;58.57;95298.75;5049544;28;20037;-79
2023/09/17 09:55:55;;;;;;;14.88;12.13;;;;;;;21.73;57.01;95305.88;5049628;28;20283;-79
2023/09/17 09:58:20;;;;;;;22.65;14.73;;;;;;;21.68;59.72;95302.94;5049644;28;20036;-79
2023/09/17 10:00:46;;;;;;;14.98;13.15;;;;;;;21.86;58.34;95299.91;5049331;28;20021;-79
2023/09/17 10:03:13;;;;;;;16.58;13.27;;;;;;;21.84;56.93;95300.09;5049398;28;20483;-79
2023/09/17 10:05:42;;;;;;;17.95;14.77;;;;;;;21.81;58.98;95297.84;5032873;28;20025;-79
2023/09/17 10:08:08;;;;;;;16.02;13.30;;;;;;;21.95;57.13;95300.63;5033201;28;20025;-79
2023/09/17 10:10:35;;;;;;;18.70;14.80;;;;;;;21.62;58.99;95306.34;5049262;28;20570;-79
2023/09/17 10:13:03;;;;;;;20.25;15.70;;;;;;;21.65;58.83;95305.97;5049520;28;20056;-79
2023/09/17 10:15:29;;;;;;;17.38;15.18;;;;;;;21.67;59.19;95301.28;5049414;28;20479;-79
2023/09/17 10:17:55;;;;;;;16.40;13.85;;;;;;;21.70;58.48;95300.91;5032387;28;20040;-79
2023/09/17 10:20:21;;;;;;;17.77;14.60;;;;;;;21.58;57.88;95291.81;5049211;28;20025;-79
2023/09/17 10:22:46;;;;;;;18.27;14.43;;;;;;;21.45;58.18;95287.16;5032496;28;20414;-79
2023/09/17 10:25:14;;;;;;;26.50;17.75;;;;;;;21.46;58.57;95303.88;5048968;28;20021;-79
2023/09/17 10:27:39;;;;;;;20.60;16.00;;;;;;;21.48;59.95;95296.56;5032792;28;20040;-79
2023/09/17 10:30:06;;;;;;;17.67;14.43;;;;;;;21.42;59.54;95295.47;5049052;28;20021;-78
2023/09/17 10:32:32;;;;;;;16.60;13.15;;;;;;;21.28;58.10;95283.84;5049050;28;20021;-79
2023/09/17 10:34:57;;;;;;;16.75;13.75;;;;;;;21.53;58.06;95283.63;5048963;28;20318;-79
2023/09/17 10:37:23;;;;;;;16.77;13.82;;;;;;;21.54;58.89;95296.66;5049139;28;20025;-78
2023/09/17 10:39:49;;;;;;;17.30;13.10;;;;;;;21.84;58.12;95296.63;5032640;28;20580;-79
2023/09/17 10:42:14;;;;;;;17.67;14.40;;;;;;;21.89;57.04;95293.44;5050206;28;20021;-78
2023/09/17 10:44:40;;;;;;;16.40;13.80;;;;;;;22.01;57.14;95291.97;5065569;28;20037;-79
2023/09/17 10:47:08;;;;;;;17.20;13.48;;;;;;;22.29;56.50;95297.38;5034781;28;20028;-79
2023/09/17 10:49:36;;;;;;;17.92;14.00;;;;;;;21.98;56.00;95294.94;5035894;28;20407;-79
2023/09/17 10:52:02;;;;;;;17.52;13.50;;;;;;;22.02;56.42;95289.13;5036531;28;20037;-79
2023/09/17 10:54:27;;;;;;;16.95;13.90;;;;;;;22.33;56.40;95276.66;5052697;28;20479;-78
2023/09/17 10:56:54;;;;;;;16.42;13.88;;;;;;;22.20;56.42;95291.38;5035886;28;20032;-79
2023/09/17 10:59:19;;;;;;;18.35;14.60;;;;;;;22.08;57.12;95282.25;5035990;28;20048;-79
2023/09/17 11:01:45;;;;;;;15.70;13.95;;;;;;;22.55;55.62;95282.75;5052598;28;20458;-79
2023/09/17 11:04:15;;;;;;;15.77;13.65;;;;;;;22.12;55.83;95256.25;5052268;28;20042;-79
2023/09/17 11:06:42;;;;;;;15.13;12.82;;;;;;;22.09;55.90;95268.00;5068810;28;20064;-78
2023/09/17 11:09:07;;;;;;;15.15;13.27;;;;;;;22.23;56.13;95261.91;5035407;28;20129;-79
2023/09/17 11:11:34;;;;;;;20.52;15.43;;;;;;;22.21;57.75;95255.97;5053720;28;20430;-79
2023/09/17 11:14:01;;;;;;;15.75;13.60;;;;;;;22.46;55.84;95253.78;5052273;28;20037;-79